createdAt,value
2022-11-30T00:01:23.440Z,23.30
2022-11-30T00:03:54.692Z,22.80
2022-11-30T00:06:24.386Z,23.65
2022-11-30T00:08:55.720Z,24.35
2022-11-30T00:11:24.766Z,23.58
2022-11-30T00:13:51.656Z,23.00
2022-11-30T00:16:18.498Z,24.08
2022-11-30T00:18:45.343Z,23.05
2022-11-30T00:21:14.078Z,22.65
2022-11-30T00:26:12.363Z,22.25
2022-11-30T00:28:39.861Z,22.23
2022-11-30T00:31:10.855Z,23.23
2022-11-30T00:33:39.018Z,22.98
2022-11-30T00:36:08.559Z,22.10
2022-11-30T00:38:35.846Z,23.00
2022-11-30T00:41:02.940Z,23.42
2022-11-30T00:43:30.609Z,23.25
2022-11-30T00:45:57.601Z,22.58
2022-11-30T00:48:24.699Z,22.70
2022-11-30T00:50:51.722Z,22.83
2022-11-30T00:53:19.170Z,23.05
2022-11-30T00:55:46.613Z,21.35
2022-11-30T00:58:14.327Z,21.45
2022-11-30T01:00:41.444Z,22.35
2022-11-30T01:03:08.193Z,22.88
2022-11-30T01:05:35.811Z,23.10
2022-11-30T01:08:05.325Z,22.20
2022-11-30T01:10:32.896Z,22.30
2022-11-30T01:12:59.562Z,22.13
2022-11-30T01:15:26.473Z,22.38
2022-11-30T01:17:53.183Z,23.15
2022-11-30T01:20:19.995Z,22.50
2022-11-30T01:22:46.791Z,21.30
2022-11-30T01:25:13.600Z,21.80
2022-11-30T01:27:40.313Z,21.60
2022-11-30T01:30:07.673Z,21.73
2022-11-30T01:32:34.504Z,22.73
2022-11-30T01:35:01.262Z,22.30
2022-11-30T01:37:30.056Z,22.23
2022-11-30T01:42:23.719Z,20.83
2022-11-30T01:44:58.538Z,21.90
2022-11-30T01:47:41.857Z,21.88
2022-11-30T01:50:16.796Z,23.92
2022-11-30T01:52:47.919Z,22.30
2022-11-30T01:55:23.612Z,23.92
2022-11-30T01:58:09.624Z,23.77
2022-11-30T02:00:36.358Z,22.98
2022-11-30T02:03:26.444Z,22.45
2022-11-30T02:05:53.678Z,22.92
2022-11-30T02:08:20.850Z,23.30
2022-11-30T02:10:54.139Z,23.00
2022-11-30T02:13:45.622Z,22.60
2022-11-30T02:16:27.115Z,23.40
2022-11-30T02:19:24.880Z,22.52
2022-11-30T02:22:29.144Z,23.07
2022-11-30T02:24:58.607Z,22.02
2022-11-30T02:27:46.943Z,22.58
2022-11-30T02:32:56.326Z,22.42
2022-11-30T02:35:27.661Z,21.63
2022-11-30T02:37:56.628Z,21.50
2022-11-30T02:40:23.705Z,21.60
2022-11-30T02:42:52.577Z,22.52
2022-11-30T02:45:53.920Z,22.65
2022-11-30T02:48:38.389Z,22.75
2022-11-30T02:51:09.635Z,21.00
2022-11-30T02:53:36.883Z,21.45
2022-11-30T02:56:04.528Z,21.42
2022-11-30T02:58:31.654Z,21.98
2022-11-30T03:00:58.369Z,21.77
2022-11-30T03:03:25.135Z,20.65
2022-11-30T03:05:52.097Z,21.58
2022-11-30T03:08:18.842Z,20.98
2022-11-30T03:10:45.500Z,22.73
2022-11-30T03:13:12.153Z,21.75
2022-11-30T03:15:38.839Z,21.65
2022-11-30T03:18:05.845Z,22.23
2022-11-30T03:20:32.597Z,20.60
2022-11-30T03:23:00.822Z,20.70
2022-11-30T03:25:28.509Z,21.67
2022-11-30T03:27:55.230Z,21.02
2022-11-30T03:30:21.983Z,20.50
2022-11-30T03:32:48.712Z,20.63
2022-11-30T03:35:15.529Z,19.70
2022-11-30T03:37:42.208Z,20.92
2022-11-30T03:40:09.286Z,20.80
2022-11-30T03:42:35.955Z,19.83
2022-11-30T03:45:02.834Z,19.83
2022-11-30T03:47:29.651Z,20.63
2022-11-30T03:49:56.401Z,19.58
2022-11-30T03:52:23.074Z,21.67
2022-11-30T03:54:49.805Z,20.90
2022-11-30T03:57:16.535Z,19.40
2022-11-30T03:59:43.196Z,19.60
2022-11-30T04:02:09.859Z,20.77
2022-11-30T04:04:36.634Z,19.83
2022-11-30T04:07:03.319Z,19.05
2022-11-30T04:09:29.982Z,19.55
2022-11-30T04:11:56.657Z,20.00
2022-11-30T04:14:23.328Z,19.48
2022-11-30T04:16:50.017Z,20.67
2022-11-30T04:19:16.690Z,19.25
2022-11-30T04:21:43.424Z,20.92
2022-11-30T04:24:10.227Z,18.65
2022-11-30T04:26:37.008Z,20.08
2022-11-30T04:29:04.731Z,19.02
2022-11-30T04:31:31.587Z,19.63
2022-11-30T04:33:58.339Z,20.25
2022-11-30T04:36:25.133Z,20.17
2022-11-30T04:38:51.789Z,19.08
2022-11-30T04:41:18.453Z,19.27
2022-11-30T04:43:45.184Z,20.02
2022-11-30T04:46:12.191Z,18.55
2022-11-30T04:48:39.115Z,19.77
2022-11-30T04:51:07.712Z,19.65
2022-11-30T04:53:35.815Z,19.77
2022-11-30T04:56:11.231Z,19.75
2022-11-30T04:58:39.117Z,19.38
2022-11-30T05:01:06.801Z,18.77
2022-11-30T05:03:33.582Z,18.58
2022-11-30T05:06:00.436Z,19.67
2022-11-30T05:08:27.211Z,19.40
2022-11-30T05:10:54.676Z,18.77
2022-11-30T05:13:22.894Z,18.55
2022-11-30T05:15:52.219Z,17.13
2022-11-30T05:18:19.144Z,17.95
2022-11-30T05:20:50.615Z,16.95
2022-11-30T05:23:18.357Z,17.63
2022-11-30T05:25:46.079Z,16.95
2022-11-30T05:28:13.437Z,16.67
2022-11-30T05:30:41.842Z,15.93
2022-11-30T05:33:08.845Z,16.08
2022-11-30T05:35:36.019Z,17.35
2022-11-30T05:38:03.250Z,16.73
2022-11-30T05:40:32.440Z,15.52
2022-11-30T05:43:00.500Z,17.33
2022-11-30T05:45:28.157Z,15.70
2022-11-30T05:47:54.839Z,16.55
2022-11-30T05:50:21.779Z,16.48
2022-11-30T05:52:49.577Z,15.43
2022-11-30T05:55:16.358Z,16.10
2022-11-30T05:57:43.057Z,16.73
2022-11-30T06:00:10.336Z,15.52
2022-11-30T06:02:37.110Z,15.40
2022-11-30T06:05:04.226Z,17.23
2022-11-30T06:07:31.007Z,16.73
2022-11-30T06:09:57.785Z,16.17
2022-11-30T06:12:24.614Z,16.67
2022-11-30T06:14:51.395Z,15.35
2022-11-30T06:17:18.074Z,15.98
2022-11-30T06:19:44.776Z,16.08
2022-11-30T06:22:11.429Z,16.08
2022-11-30T06:24:38.093Z,16.00
2022-11-30T06:27:07.075Z,16.48
2022-11-30T06:29:33.751Z,15.45
2022-11-30T06:32:00.598Z,15.43
2022-11-30T06:34:27.548Z,16.02
2022-11-30T06:36:54.321Z,16.30
2022-11-30T06:39:42.956Z,15.30
2022-11-30T06:42:07.698Z,14.70
2022-11-30T06:44:34.393Z,13.75
2022-11-30T06:47:01.178Z,13.60
2022-11-30T06:49:28.278Z,13.63
2022-11-30T06:51:55.060Z,13.60
2022-11-30T06:54:21.823Z,12.85
2022-11-30T06:56:51.833Z,12.82
2022-11-30T06:59:18.513Z,13.65
2022-11-30T07:01:45.281Z,11.93
2022-11-30T07:04:12.058Z,12.48
2022-11-30T07:06:38.772Z,12.13
2022-11-30T07:09:05.455Z,13.00
2022-11-30T07:11:33.281Z,12.75
2022-11-30T07:14:00.899Z,12.60
2022-11-30T07:16:27.708Z,11.98
2022-11-30T07:18:54.399Z,11.13
2022-11-30T07:21:21.137Z,10.93
2022-11-30T07:24:06.455Z,11.45
2022-11-30T07:26:33.618Z,9.90
2022-11-30T07:29:00.273Z,9.35
2022-11-30T07:31:28.095Z,8.65
2022-11-30T07:33:55.713Z,9.13
2022-11-30T07:36:23.866Z,10.27
2022-11-30T07:38:50.535Z,8.77
2022-11-30T07:41:19.125Z,8.82
2022-11-30T07:43:45.943Z,8.57
2022-11-30T07:46:14.693Z,9.35
2022-11-30T07:48:42.575Z,9.32
2022-11-30T07:51:17.820Z,9.03
2022-11-30T07:53:44.629Z,8.50
2022-11-30T07:56:14.629Z,8.18
2022-11-30T07:58:41.752Z,7.82
2022-11-30T08:01:15.561Z,6.70
2022-11-30T08:03:42.494Z,8.18
2022-11-30T08:06:11.876Z,6.72
2022-11-30T08:08:41.949Z,7.40
2022-11-30T08:11:10.638Z,7.85
2022-11-30T08:13:37.635Z,7.80
2022-11-30T08:16:10.167Z,7.45
2022-11-30T08:18:37.025Z,7.95
2022-11-30T08:21:06.129Z,9.25
2022-11-30T08:23:38.430Z,9.18
2022-11-30T08:26:19.824Z,10.15
2022-11-30T08:28:48.357Z,11.45
2022-11-30T08:31:27.093Z,11.60
2022-11-30T08:34:02.453Z,11.43
2022-11-30T08:36:30.729Z,12.07
2022-11-30T08:39:00.910Z,12.27
2022-11-30T08:41:28.028Z,13.73
2022-11-30T08:43:55.753Z,13.68
2022-11-30T08:49:26.333Z,13.27
2022-11-30T08:54:45.850Z,11.60
2022-11-30T08:57:17.504Z,12.18
2022-11-30T08:59:44.912Z,12.27
2022-11-30T09:02:14.025Z,12.32
2022-11-30T09:04:40.915Z,12.88
2022-11-30T09:07:07.714Z,13.93
2022-11-30T09:09:34.436Z,14.10
2022-11-30T09:12:01.525Z,15.25
2022-11-30T09:14:28.282Z,14.25
2022-11-30T09:16:55.596Z,15.25
2022-11-30T09:19:23.396Z,17.38
2022-11-30T09:21:52.151Z,17.93
2022-11-30T09:24:20.594Z,16.00
2022-11-30T09:26:47.461Z,17.83
2022-11-30T09:29:14.205Z,17.20
2022-11-30T09:31:41.967Z,18.00
2022-11-30T09:34:11.516Z,19.27
2022-11-30T09:36:38.558Z,19.95
2022-11-30T09:39:06.379Z,18.08
2022-11-30T09:41:37.013Z,18.92
2022-11-30T09:44:31.219Z,18.92
2022-11-30T09:46:57.947Z,19.75
2022-11-30T09:49:31.775Z,19.85
2022-11-30T09:52:04.259Z,20.92
2022-11-30T09:54:39.563Z,24.40
2022-11-30T09:57:34.885Z,28.92
2022-11-30T10:00:06.568Z,30.08
2022-11-30T10:02:40.558Z,32.55
2022-11-30T10:05:15.922Z,32.05
2022-11-30T10:08:10.675Z,32.92
2022-11-30T10:11:00.494Z,30.38
2022-11-30T10:13:42.164Z,27.75
2022-11-30T10:16:23.921Z,28.10
2022-11-30T10:19:00.528Z,30.08
2022-11-30T10:22:01.330Z,29.42
2022-11-30T10:24:56.969Z,32.13
2022-11-30T10:27:35.356Z,30.98
2022-11-30T10:30:02.559Z,31.67
2022-11-30T10:32:37.486Z,31.63
2022-11-30T10:35:26.166Z,33.75
2022-11-30T10:37:53.643Z,32.15
2022-11-30T10:40:34.369Z,32.72
2022-11-30T10:43:29.374Z,32.13
2022-11-30T10:45:56.468Z,32.38
2022-11-30T10:48:23.120Z,33.15
2022-11-30T10:50:50.390Z,32.72
2022-11-30T10:53:17.210Z,32.90
2022-11-30T10:55:50.937Z,32.70
2022-11-30T10:58:33.670Z,32.15
2022-11-30T11:01:29.312Z,33.83
2022-11-30T11:04:18.754Z,34.50
2022-11-30T11:06:56.601Z,35.05
2022-11-30T11:09:30.486Z,34.63
2022-11-30T11:12:23.994Z,33.97
2022-11-30T11:15:10.009Z,36.67
2022-11-30T11:17:37.832Z,36.38
2022-11-30T11:20:39.148Z,38.13
2022-11-30T11:23:05.869Z,35.85
2022-11-30T11:25:35.958Z,35.55
2022-11-30T11:28:09.021Z,31.85
2022-11-30T11:31:30.413Z,32.50
2022-11-30T11:34:22.748Z,31.95
2022-11-30T11:38:06.621Z,31.67
2022-11-30T11:40:32.067Z,32.53
2022-11-30T11:43:09.137Z,31.10
2022-11-30T11:45:38.386Z,32.33
2022-11-30T11:48:22.572Z,31.45
2022-11-30T11:51:07.546Z,29.80
2022-11-30T11:53:47.395Z,30.48
2022-11-30T11:56:27.512Z,31.25
2022-11-30T11:59:02.592Z,30.40
2022-11-30T12:02:01.146Z,29.33
2022-11-30T12:04:46.804Z,30.33
2022-11-30T12:07:36.615Z,29.55
2022-11-30T12:10:50.685Z,29.83
2022-11-30T12:13:15.491Z,31.35
2022-11-30T12:16:04.367Z,31.63
2022-11-30T12:18:55.864Z,29.45
2022-11-30T12:22:03.776Z,30.05
2022-11-30T12:24:44.102Z,29.08
2022-11-30T12:27:34.222Z,30.00
2022-11-30T12:30:26.594Z,29.58
2022-11-30T12:33:12.236Z,27.38
2022-11-30T12:35:58.651Z,27.58
2022-11-30T12:38:58.722Z,28.63
2022-11-30T12:41:34.556Z,28.25
2022-11-30T12:44:13.501Z,27.88
2022-11-30T12:47:27.406Z,26.35
2022-11-30T12:50:27.824Z,24.63
2022-11-30T12:53:04.064Z,26.75
2022-11-30T12:55:52.327Z,26.83
2022-11-30T12:58:31.009Z,26.75
2022-11-30T13:01:00.721Z,26.45
2022-11-30T13:03:46.353Z,27.20
2022-11-30T13:06:18.528Z,27.30
2022-11-30T13:09:02.355Z,28.17
2022-11-30T13:11:41.703Z,26.73
2022-11-30T13:14:16.298Z,28.33
2022-11-30T13:16:44.192Z,27.70
2022-11-30T13:19:35.847Z,27.97
2022-11-30T13:22:09.540Z,26.23
2022-11-30T13:24:42.152Z,25.52
2022-11-30T13:27:24.442Z,26.02
2022-11-30T13:30:09.377Z,26.70
2022-11-30T13:35:29.943Z,28.35
2022-11-30T13:38:35.909Z,27.85
2022-11-30T13:41:04.182Z,27.65
2022-11-30T13:43:36.128Z,27.27
2022-11-30T13:46:06.814Z,26.77
2022-11-30T13:48:38.875Z,26.33
2022-11-30T13:51:06.213Z,27.23
2022-11-30T13:53:35.902Z,26.40
2022-11-30T13:56:07.947Z,28.30
2022-11-30T13:58:35.328Z,27.98
2022-11-30T14:01:04.794Z,26.45
2022-11-30T14:03:32.646Z,25.60
2022-11-30T14:06:01.257Z,26.37
2022-11-30T14:08:36.939Z,27.70
2022-11-30T14:11:19.013Z,24.80
2022-11-30T14:13:45.837Z,26.27
2022-11-30T14:16:24.657Z,24.10
2022-11-30T14:18:51.915Z,25.60
2022-11-30T14:21:36.689Z,24.58
2022-11-30T14:24:19.391Z,21.67
2022-11-30T14:26:49.263Z,23.48
2022-11-30T14:29:26.041Z,22.85
2022-11-30T14:32:00.876Z,23.63
2022-11-30T14:34:36.107Z,24.35
2022-11-30T14:37:15.926Z,24.00
2022-11-30T14:39:45.671Z,23.02
2022-11-30T14:42:24.915Z,22.95
2022-11-30T14:44:52.332Z,23.20
2022-11-30T14:47:23.486Z,22.52
2022-11-30T14:49:52.910Z,21.45
2022-11-30T14:52:40.843Z,20.80
2022-11-30T14:55:38.746Z,20.52
2022-11-30T14:58:14.454Z,20.48
2022-11-30T15:00:43.551Z,20.10
2022-11-30T15:03:38.987Z,20.05
2022-11-30T15:06:07.803Z,20.95
2022-11-30T15:08:50.000Z,21.52
2022-11-30T15:11:17.625Z,20.98
2022-11-30T15:14:07.069Z,19.67
2022-11-30T15:16:34.971Z,21.38
2022-11-30T15:19:20.090Z,20.00
2022-11-30T15:21:47.328Z,20.50
2022-11-30T15:24:14.121Z,20.30
2022-11-30T15:26:49.678Z,19.25
2022-11-30T15:29:29.065Z,21.13
2022-11-30T15:31:58.098Z,19.90
2022-11-30T15:34:24.807Z,20.33
2022-11-30T15:36:56.536Z,19.42
2022-11-30T15:39:25.519Z,19.10
2022-11-30T15:41:58.111Z,19.70
2022-11-30T15:44:47.179Z,20.38
2022-11-30T15:47:27.859Z,19.35
2022-11-30T15:49:55.781Z,21.08
2022-11-30T15:52:28.374Z,20.33
2022-11-30T15:54:56.607Z,20.23
2022-11-30T15:58:01.065Z,20.63
2022-11-30T16:00:29.383Z,20.73
2022-11-30T16:03:13.221Z,21.17
2022-11-30T16:05:40.239Z,22.15
2022-11-30T16:08:17.991Z,21.95
2022-11-30T16:10:44.978Z,21.77
2022-11-30T16:13:14.026Z,20.83
2022-11-30T16:15:46.757Z,22.58
2022-11-30T16:18:18.975Z,22.65
2022-11-30T16:20:48.325Z,22.38
2022-11-30T16:23:16.311Z,25.00
2022-11-30T16:25:44.716Z,25.10
2022-11-30T16:28:13.726Z,26.13
2022-11-30T16:30:41.275Z,24.80
2022-11-30T16:33:16.756Z,26.00
2022-11-30T16:35:56.835Z,24.52
2022-11-30T16:38:24.885Z,24.70
2022-11-30T16:40:54.116Z,24.50
2022-11-30T16:43:22.408Z,25.15
2022-11-30T16:45:50.815Z,22.92
2022-11-30T16:48:18.270Z,24.05
2022-11-30T16:50:45.420Z,22.10
2022-11-30T16:53:17.058Z,22.92
2022-11-30T16:55:44.090Z,22.40
2022-11-30T16:58:10.884Z,22.98
2022-11-30T17:00:40.705Z,21.90
2022-11-30T17:03:31.447Z,23.85
2022-11-30T17:05:58.174Z,21.70
2022-11-30T17:08:25.095Z,21.98
2022-11-30T17:10:53.331Z,22.48
2022-11-30T17:13:20.315Z,24.42
2022-11-30T17:15:48.111Z,23.50
2022-11-30T17:18:14.919Z,25.27
2022-11-30T17:20:41.866Z,24.05
2022-11-30T17:23:09.767Z,25.08
2022-11-30T17:25:36.435Z,27.90
2022-11-30T17:28:03.199Z,27.27
2022-11-30T17:30:29.945Z,26.80
2022-11-30T17:32:56.812Z,28.85
2022-11-30T17:35:23.487Z,29.58
2022-11-30T17:37:53.322Z,28.73
2022-11-30T17:40:20.000Z,28.85
2022-11-30T17:42:48.730Z,31.63
2022-11-30T17:47:42.328Z,30.33
2022-11-30T17:50:09.330Z,29.98
2022-11-30T17:52:36.085Z,29.80
2022-11-30T17:55:03.138Z,32.83
2022-11-30T17:57:29.949Z,30.92
2022-11-30T17:59:56.645Z,29.88
2022-11-30T18:02:23.495Z,30.58
2022-11-30T18:04:52.469Z,28.98
2022-11-30T18:07:20.131Z,31.52
2022-11-30T18:12:14.762Z,29.48
2022-11-30T18:14:41.731Z,32.33
2022-11-30T18:17:08.670Z,32.58
2022-11-30T18:19:35.557Z,30.55
2022-11-30T18:22:02.446Z,31.30
2022-11-30T18:24:29.156Z,29.40
2022-11-30T18:26:56.037Z,31.65
2022-11-30T18:29:22.699Z,35.10
2022-11-30T18:31:50.308Z,32.70
2022-11-30T18:34:17.232Z,31.33
2022-11-30T18:36:44.054Z,29.85
2022-11-30T18:39:10.875Z,30.15
2022-11-30T18:41:37.623Z,29.50
2022-11-30T18:44:04.901Z,31.20
2022-11-30T18:46:31.669Z,32.15
2022-11-30T18:48:59.557Z,31.92
2022-11-30T18:51:28.416Z,32.20
2022-11-30T18:54:04.383Z,32.38
2022-11-30T18:56:33.686Z,33.47
2022-11-30T18:59:02.862Z,33.45
2022-11-30T19:01:30.737Z,35.45
2022-11-30T19:03:59.763Z,34.33
2022-11-30T19:06:32.724Z,33.95
2022-11-30T19:09:11.200Z,31.38
2022-11-30T19:11:40.183Z,32.20
2022-11-30T19:14:07.282Z,31.98
2022-11-30T19:16:35.409Z,33.60
2022-11-30T19:19:04.891Z,32.70
2022-11-30T19:21:31.971Z,32.38
2022-11-30T19:23:59.366Z,34.15
2022-11-30T19:26:28.352Z,33.92
2022-11-30T19:28:56.637Z,33.92
2022-11-30T19:31:24.487Z,34.50
2022-11-30T19:33:55.095Z,35.50
2022-11-30T19:36:27.627Z,34.40
2022-11-30T19:38:55.090Z,33.40
2022-11-30T19:41:22.177Z,36.33
2022-11-30T19:44:01.057Z,41.85
2022-11-30T19:46:30.548Z,39.33
2022-11-30T19:49:00.553Z,37.75
2022-11-30T19:51:28.503Z,35.38
2022-11-30T19:53:57.357Z,34.83
2022-11-30T19:56:24.887Z,35.22
2022-11-30T19:58:52.193Z,33.50
2022-11-30T20:01:24.877Z,33.40
2022-11-30T20:03:54.174Z,34.13
2022-11-30T20:06:25.166Z,36.50
2022-11-30T20:08:51.896Z,38.33
2022-11-30T20:11:18.661Z,36.53
2022-11-30T20:13:46.010Z,34.20
2022-11-30T20:16:15.244Z,34.90
2022-11-30T20:18:46.209Z,35.00
2022-11-30T20:21:16.202Z,33.78
2022-11-30T20:23:44.543Z,34.17
2022-11-30T20:26:17.133Z,34.25
2022-11-30T20:28:44.982Z,34.83
2022-11-30T20:31:12.824Z,35.53
2022-11-30T20:33:39.629Z,34.90
2022-11-30T20:36:08.907Z,37.05
2022-11-30T20:38:36.079Z,36.28
2022-11-30T20:41:03.935Z,36.53
2022-11-30T20:43:30.885Z,35.97
2022-11-30T20:45:57.624Z,37.38
2022-11-30T20:48:24.364Z,39.05
2022-11-30T20:51:21.738Z,37.70
2022-11-30T20:53:39.338Z,38.15
2022-11-30T20:56:06.807Z,36.05
2022-11-30T20:58:33.851Z,38.40
2022-11-30T21:01:01.278Z,40.42
2022-11-30T21:03:28.525Z,37.45
2022-11-30T21:05:55.195Z,38.97
2022-11-30T21:08:21.931Z,39.05
2022-11-30T21:10:48.582Z,38.88
2022-11-30T21:13:15.335Z,38.72
2022-11-30T21:15:43.159Z,37.92
2022-11-30T21:18:09.875Z,40.47
2022-11-30T21:20:36.530Z,39.67
2022-11-30T21:23:03.219Z,40.28
2022-11-30T21:25:29.974Z,41.38
2022-11-30T21:27:56.688Z,39.42
2022-11-30T21:30:23.430Z,37.10
2022-11-30T21:32:50.109Z,38.58
2022-11-30T21:35:16.830Z,38.38
2022-11-30T21:37:43.515Z,37.17
2022-11-30T21:40:10.885Z,36.65
2022-11-30T21:42:37.567Z,38.20
2022-11-30T21:45:06.066Z,40.60
2022-11-30T21:47:33.138Z,40.90
2022-11-30T21:49:59.855Z,40.22
2022-11-30T21:52:26.732Z,39.22
2022-11-30T21:54:53.879Z,39.55
2022-11-30T21:57:21.636Z,40.35
2022-11-30T21:59:48.625Z,41.78
2022-11-30T22:02:15.762Z,42.38
2022-11-30T22:04:42.486Z,41.90
2022-11-30T22:07:13.259Z,42.63
2022-11-30T22:09:42.272Z,43.40
2022-11-30T22:14:36.354Z,45.65
2022-11-30T22:17:03.086Z,42.25
2022-11-30T22:19:29.779Z,42.13
2022-11-30T22:21:56.583Z,39.75
2022-11-30T22:24:23.337Z,39.72
2022-11-30T22:26:50.073Z,38.75
2022-11-30T22:29:19.458Z,39.65
2022-11-30T22:31:48.337Z,38.63
2022-11-30T22:34:15.181Z,37.88
2022-11-30T22:36:43.175Z,38.53
2022-11-30T22:39:15.457Z,35.45
2022-11-30T22:41:43.860Z,35.78
2022-11-30T22:44:16.257Z,34.30
2022-11-30T22:46:44.519Z,34.22
2022-11-30T22:49:19.882Z,34.63
2022-11-30T22:51:48.074Z,35.33
2022-11-30T22:54:14.879Z,34.28
2022-11-30T22:56:42.015Z,32.70
2022-11-30T22:59:11.860Z,35.13
2022-11-30T23:01:44.430Z,35.50
2022-11-30T23:04:13.695Z,32.90
2022-11-30T23:06:41.985Z,34.45
2022-11-30T23:09:12.325Z,34.80
2022-11-30T23:11:39.056Z,34.47
2022-11-30T23:14:08.088Z,34.65
2022-11-30T23:16:36.050Z,31.80
2022-11-30T23:19:03.435Z,33.23
2022-11-30T23:21:38.879Z,31.88
2022-11-30T23:24:09.482Z,30.33
2022-11-30T23:26:38.232Z,31.23
2022-11-30T23:31:36.535Z,28.40
2022-11-30T23:34:12.086Z,28.40
2022-11-30T23:36:39.007Z,27.98
2022-11-30T23:39:09.667Z,26.27
2022-11-30T23:41:36.874Z,25.45
2022-11-30T23:44:04.306Z,24.42
2022-11-30T23:46:31.296Z,23.08
2022-11-30T23:48:58.295Z,24.65
2022-11-30T23:51:25.567Z,24.55
2022-11-30T23:53:52.483Z,25.13
2022-11-30T23:56:21.104Z,25.33
2022-11-30T23:58:47.990Z,25.67
